Terminal Aerodrome Forecast
Issued by NWS Lake Charles, LA

Home | Current Version | Previous Version | Text Only | Print | Product List | Glossary On
Versions: 1 2 3 4 5 6 7 8 9 10 11 12 13 14
000
FTUS44 KLCH 310520
TAFBPT
TAF
KBPT 310520Z 3106/0106 15003KT P6SM FEW250
      TEMPO 3110/3113 3SM BR
     FM311700 16008KT P6SM VCTS SCT035CB BKN220=

USA.gov is the U.S. government's official web portal to all federal, state and local government web resources and services.